Time;durP1;ratioP1;P1;durP2;ratioP2;P2;SDS_P1;SDS_P2;PMS_P1;PMS_P2;Temp;Humidity;BMP_temperature;BMP_pressure;BME280_temperature;BME280_humidity;BME280_pressure;Samples;Min_cycle;Max_cycle;Signal;HPM_P1;HPM_P2
2021/09/09 00:00:46;;;;;;;24.25;17.10;;;;;;;13.21;75.74;101613.52;1736814;81;21061;-86
2021/09/09 00:03:13;;;;;;;23.75;16.60;;;;;;;13.20;75.75;101610.83;1764575;81;21505;-86
2021/09/09 00:05:39;;;;;;;20.32;17.25;;;;;;;13.17;75.73;101611.62;1764616;81;21014;-85
2021/09/09 00:08:06;;;;;;;22.82;16.48;;;;;;;13.16;75.82;101607.20;1764531;81;21736;-86
2021/09/09 00:10:33;;;;;;;24.20;17.02;;;;;;;13.16;75.85;101606.32;1764513;81;21058;-86
2021/09/09 00:13:00;;;;;;;22.50;17.40;;;;;;;13.14;75.91;101610.23;1764406;81;21030;-87
2021/09/09 00:15:27;;;;;;;20.65;15.83;;;;;;;13.12;75.91;101612.34;1764604;81;21081;-88
2021/09/09 00:17:53;;;;;;;22.20;17.55;;;;;;;13.09;75.91;101610.52;1764930;81;21114;-87
2021/09/09 00:20:20;;;;;;;24.12;16.90;;;;;;;13.07;75.96;101608.70;1764695;81;21740;-86
2021/09/09 00:22:47;;;;;;;26.20;18.48;;;;;;;13.05;75.93;101614.38;1764572;81;21027;-86
2021/09/09 00:25:13;;;;;;;24.90;18.23;;;;;;;13.02;76.00;101616.48;1764431;81;21041;-80
2021/09/09 00:27:40;;;;;;;25.65;16.82;;;;;;;13.00;76.11;101612.90;1763994;81;21543;-79
2021/09/09 00:30:08;;;;;;;20.77;16.17;;;;;;;12.98;76.16;101606.67;1763971;81;21069;-79
2021/09/09 00:32:35;;;;;;;24.65;16.40;;;;;;;12.97;76.19;101607.11;1764044;81;21766;-79
2021/09/09 00:35:01;;;;;;;25.48;17.05;;;;;;;12.96;76.20;101600.02;1763930;81;21096;-80
2021/09/09 00:37:28;;;;;;;25.25;16.65;;;;;;;12.96;76.23;101603.98;1764033;79;21544;-79
2021/09/09 00:39:55;;;;;;;22.50;16.15;;;;;;;12.96;76.30;101597.81;1763975;81;21245;-79
2021/09/09 00:42:22;;;;;;;22.95;16.12;;;;;;;12.95;76.25;101592.96;1763948;81;21065;-80
2021/09/09 00:44:48;;;;;;;23.50;16.48;;;;;;;12.96;76.34;101592.52;1762536;81;22421;-80
2021/09/09 00:47:15;;;;;;;23.95;16.85;;;;;;;12.96;76.34;101590.77;1762689;81;21030;-80
2021/09/09 00:49:43;;;;;;;20.62;16.62;;;;;;;12.96;76.39;101596.06;1763310;81;21007;-87
2021/09/09 00:52:11;;;;;;;18.35;15.30;;;;;;;12.94;76.34;101592.48;1762523;81;21626;-80
2021/09/09 00:54:38;;;;;;;21.60;15.30;;;;;;;12.94;76.40;101595.55;1763317;81;21007;-90
2021/09/09 00:57:05;;;;;;;25.60;16.23;;;;;;;12.92;76.39;101591.55;1763578;81;21736;-87
2021/09/09 00:59:32;;;;;;;22.50;16.27;;;;;;;12.89;76.38;101584.83;1763371;81;21054;-88
2021/09/09 01:01:59;;;;;;;26.02;16.90;;;;;;;12.88;76.42;101590.10;1731363;81;21109;-87
2021/09/09 01:04:26;;;;;;;22.62;16.05;;;;;;;12.86;76.49;101587.41;1763355;81;21016;-88
2021/09/09 01:06:52;;;;;;;24.12;15.08;;;;;;;12.84;76.43;101590.44;1763385;81;20991;-89
2021/09/09 01:09:19;;;;;;;21.20;15.68;;;;;;;12.82;76.50;101585.53;1762807;81;22556;-86
2021/09/09 01:11:46;;;;;;;19.90;15.15;;;;;;;12.79;76.46;101582.36;1763211;81;21066;-87
2021/09/09 01:14:14;;;;;;;21.37;16.20;;;;;;;12.77;76.47;101581.86;1763621;81;21027;-88
2021/09/09 01:16:42;;;;;;;18.92;14.63;;;;;;;12.73;76.50;101578.22;1763442;81;21070;-88
2021/09/09 01:19:09;;;;;;;23.15;14.75;;;;;;;12.71;76.44;101579.04;1763548;81;21492;-88
2021/09/09 01:21:36;;;;;;;22.58;15.18;;;;;;;12.68;76.49;101578.50;1763534;81;21761;-88
2021/09/09 01:24:09;;;;;;;20.17;14.47;;;;;;;12.66;76.57;101584.17;1763320;81;21114;-87
2021/09/09 01:26:55;;;;;;;18.50;14.28;;;;;;;12.65;76.63;101581.08;1759976;81;21090;-87
2021/09/09 01:29:24;;;;;;;19.75;14.80;;;;;;;12.64;76.72;101583.23;1763240;81;21161;-86
2021/09/09 01:31:51;;;;;;;19.52;15.20;;;;;;;12.62;76.77;101578.33;1763391;81;21086;-87
2021/09/09 01:34:18;;;;;;;19.85;14.43;;;;;;;12.62;76.85;101578.33;1763195;81;22539;-88
2021/09/09 01:36:45;;;;;;;20.15;14.63;;;;;;;12.61;76.89;101572.56;1763269;81;21058;-87
2021/09/09 01:39:12;;;;;;;22.80;15.20;;;;;;;12.61;76.94;101570.84;1763317;81;21070;-87
2021/09/09 01:41:38;;;;;;;19.98;14.45;;;;;;;12.60;76.92;101571.67;1763405;81;21057;-87
2021/09/09 01:44:05;;;;;;;19.05;15.00;;;;;;;12.58;76.90;101569.85;1763907;81;21092;-88
2021/09/09 01:46:32;;;;;;;18.90;14.78;;;;;;;12.57;76.92;101571.58;1764683;81;22675;-88
2021/09/09 01:48:59;;;;;;;20.70;15.45;;;;;;;12.54;76.89;101571.50;1764240;79;21552;-88
2021/09/09 01:51:26;;;;;;;19.75;15.10;;;;;;;12.52;76.84;101578.89;1763918;80;21042;-88
2021/09/09 01:53:54;;;;;;;19.05;14.38;;;;;;;12.51;76.90;101578.00;1763883;81;21022;-88
2021/09/09 01:56:21;;;;;;;19.98;14.80;;;;;;;12.49;76.85;101580.14;1763873;81;21042;-88
2021/09/09 01:58:48;;;;;;;20.47;15.70;;;;;;;12.45;76.84;101576.50;1763993;81;21733;-88
2021/09/09 02:01:15;;;;;;;18.45;14.90;;;;;;;12.42;76.96;101574.64;1763851;81;21098;-88
2021/09/09 02:03:42;;;;;;;22.02;14.53;;;;;;;12.41;76.99;101566.70;1763900;81;21662;-88
2021/09/09 02:06:09;;;;;;;22.00;15.13;;;;;;;12.40;77.05;101574.14;1764013;81;21504;-88
2021/09/09 02:08:36;;;;;;;18.27;14.58;;;;;;;12.37;77.04;101574.95;1763841;81;21042;-88
2021/09/09 02:11:02;;;;;;;18.50;14.63;;;;;;;12.35;76.90;101577.05;1764143;81;21756;-88
2021/09/09 02:13:29;;;;;;;19.95;15.13;;;;;;;12.31;76.96;101577.81;1764217;81;21472;-88
2021/09/09 02:15:56;;;;;;;18.73;14.35;;;;;;;12.30;77.07;101574.72;1764413;81;21026;-87
2021/09/09 02:18:22;;;;;;;20.85;14.87;;;;;;;12.27;77.17;101577.25;1763943;81;21654;-87
2021/09/09 02:20:49;;;;;;;19.95;14.38;;;;;;;12.23;77.26;101566.58;1763867;81;21717;-88
2021/09/09 02:23:16;;;;;;;20.70;14.23;;;;;;;12.22;77.24;101568.77;1764559;81;22578;-88
2021/09/09 02:25:42;;;;;;;22.40;15.20;;;;;;;12.19;77.27;101566.02;1764841;81;21034;-87
2021/09/09 02:28:09;;;;;;;19.32;14.75;;;;;;;12.21;77.30;101568.72;1764304;81;21026;-80
2021/09/09 02:30:35;;;;;;;18.82;14.53;;;;;;;12.20;77.29;101571.78;1763955;79;21109;-80
2021/09/09 02:33:02;;;;;;;20.20;15.58;;;;;;;12.17;77.31;101563.77;1763915;81;21045;-81
2021/09/09 02:35:29;;;;;;;19.37;13.98;;;;;;;12.16;77.41;101561.98;1763909;81;21712;-81
2021/09/09 02:37:55;;;;;;;19.62;14.73;;;;;;;12.15;77.51;101552.70;1763926;81;20999;-80
2021/09/09 02:40:22;;;;;;;22.15;15.85;;;;;;;12.15;77.62;101550.94;1763986;81;21062;-80
2021/09/09 02:42:49;;;;;;;18.23;15.38;;;;;;;12.16;77.59;101550.51;1763947;79;21093;-81
2021/09/09 02:45:16;;;;;;;21.75;15.40;;;;;;;12.14;77.60;101554.41;1762613;80;21078;-81
2021/09/09 02:47:42;;;;;;;23.22;16.70;;;;;;;12.15;77.59;101553.58;1762646;81;22623;-81
2021/09/09 02:50:09;;;;;;;24.82;15.85;;;;;;;12.12;77.58;101544.67;1762910;81;21531;-88
2021/09/09 02:52:37;;;;;;;24.35;16.10;;;;;;;12.10;77.57;101550.33;1730420;81;34420;-88
2021/09/09 02:55:05;;;;;;;20.88;15.78;;;;;;;12.08;77.64;101550.27;1763361;81;21003;-89
2021/09/09 02:57:32;;;;;;;19.48;15.50;;;;;;;12.07;77.71;101543.22;1763493;81;21050;-89
2021/09/09 02:59:59;;;;;;;18.52;14.50;;;;;;;12.05;77.74;101543.59;1763535;81;21762;-89
2021/09/09 03:02:26;;;;;;;23.07;14.93;;;;;;;12.03;77.69;101543.94;1763481;81;21087;-89
2021/09/09 03:04:53;;;;;;;22.10;14.95;;;;;;;11.99;77.69;101545.62;1763544;81;21003;-89
2021/09/09 03:07:20;;;;;;;23.35;15.25;;;;;;;11.99;77.76;101546.94;1763087;81;21070;-81
2021/09/09 03:09:46;;;;;;;19.90;15.15;;;;;;;11.98;77.85;101545.56;1762577;80;21073;-81
2021/09/09 03:12:13;;;;;;;20.10;15.28;;;;;;;11.97;77.86;101540.69;1762424;81;21737;-81
2021/09/09 03:14:40;;;;;;;19.07;14.93;;;;;;;11.94;77.87;101537.97;1762552;81;21032;-81
2021/09/09 03:17:07;;;;;;;22.65;14.45;;;;;;;11.92;77.94;101542.30;1762351;81;21068;-81
2021/09/09 03:19:33;;;;;;;22.20;15.58;;;;;;;11.91;77.99;101539.61;1762537;80;21015;-81
2021/09/09 03:22:00;;;;;;;22.10;15.05;;;;;;;11.90;78.06;101535.17;1762624;80;21069;-81
2021/09/09 03:24:27;;;;;;;20.68;14.68;;;;;;;11.89;78.10;101539.95;1762532;81;21749;-81
2021/09/09 03:26:53;;;;;;;19.45;14.70;;;;;;;11.87;78.13;101532.88;1763238;81;21034;-88
2021/09/09 03:29:20;;;;;;;19.98;15.23;;;;;;;11.86;78.17;101531.50;1763032;81;21610;-88
2021/09/09 03:31:47;;;;;;;20.23;15.90;;;;;;;11.85;78.22;101529.73;1762775;81;21085;-88
2021/09/09 03:34:13;;;;;;;22.80;15.15;;;;;;;11.84;78.21;101531.48;1763245;81;21530;-88
2021/09/09 03:36:40;;;;;;;19.67;15.55;;;;;;;11.84;78.24;101529.23;1763215;81;21748;-89
2021/09/09 03:39:07;;;;;;;19.42;15.98;;;;;;;11.83;78.28;101529.67;1763180;81;21517;-88
2021/09/09 03:41:33;;;;;;;21.95;15.50;;;;;;;11.83;78.41;101530.98;1763360;81;21019;-88
2021/09/09 03:44:00;;;;;;;20.92;15.58;;;;;;;11.84;78.35;101534.52;1763336;81;21085;-90
2021/09/09 03:46:27;;;;;;;19.42;15.78;;;;;;;11.82;78.27;101531.86;1762975;79;22298;-88
2021/09/09 03:48:55;;;;;;;22.07;16.52;;;;;;;11.81;78.27;101527.84;1762754;81;22354;-89
2021/09/09 03:51:22;;;;;;;21.82;15.70;;;;;;;11.78;78.16;101530.37;1762554;81;21093;-86
2021/09/09 03:53:50;;;;;;;19.32;14.30;;;;;;;11.76;78.20;101536.02;1762636;81;21149;-88
2021/09/09 03:56:19;;;;;;;21.95;14.93;;;;;;;11.73;78.17;101539.46;1762720;81;21113;-89
2021/09/09 03:59:33;;;;;;;23.87;14.90;;;;;;;11.70;77.99;101534.51;1762526;81;21077;-90
2021/09/09 04:01:51;;;;;;;;;;;;;;;11.66;78.03;101530.88;1757433;81;21093;-90
2021/09/09 04:04:19;;;;;;;28.35;15.50;;;;;;;11.62;78.13;101524.59;1763011;81;20818;-91
2021/09/09 04:06:46;;;;;;;36.75;16.52;;;;;;;11.60;78.17;101529.33;1762955;81;21038;-84
2021/09/09 04:09:14;;;;;;;35.03;15.95;;;;;;;11.59;78.20;101523.59;1762794;81;21080;-84
2021/09/09 04:11:42;;;;;;;42.33;17.05;;;;;;;11.58;78.29;101526.66;1762734;81;21084;-84
2021/09/09 04:14:11;;;;;;;30.50;16.02;;;;;;;11.59;78.41;101528.87;1729434;81;22580;-84
2021/09/09 04:16:39;;;;;;;26.50;15.58;;;;;;;11.58;78.41;101531.94;1762565;81;22235;-85
2021/09/09 04:19:06;;;;;;;23.57;15.95;;;;;;;11.59;78.41;101530.19;1763071;81;21048;-87
2021/09/09 04:21:33;;;;;;;18.98;15.35;;;;;;;11.61;78.48;101530.70;1762926;81;21051;-90
2021/09/09 04:24:01;;;;;;;22.65;17.02;;;;;;;11.64;78.56;101525.54;1762928;81;21042;-91
2021/09/09 04:26:28;;;;;;;23.67;16.55;;;;;;;11.71;78.65;101523.09;1762943;81;21744;-90
2021/09/09 04:28:56;;;;;;;21.52;16.62;;;;;;;11.74;78.74;101522.77;1762845;81;22272;-85
2021/09/09 04:31:24;;;;;;;20.27;16.37;;;;;;;11.82;78.76;101523.02;1762702;81;21101;-84
2021/09/09 04:33:51;;;;;;;22.10;16.67;;;;;;;11.89;78.78;101518.84;1762804;81;21613;-88
2021/09/09 04:36:19;;;;;;;20.90;16.30;;;;;;;11.99;78.82;101523.19;1763120;81;21599;-90
2021/09/09 04:39:07;;;;;;;23.10;16.00;;;;;;;12.42;79.64;101525.80;1762785;81;21683;-85
2021/09/09 04:41:58;;;;;;;22.25;16.37;;;;;;;13.12;79.91;101524.72;1750436;80;21133;-81
2021/09/09 04:53:12;;;;;;;23.02;16.37;;;;;;;16.55;76.38;101505.91;1505108;92;21109;-81
2021/09/09 04:55:39;;;;;;;26.57;17.45;;;;;;;17.37;75.27;101511.27;1493026;94;21098;-82
2021/09/09 04:58:06;;;;;;;25.72;15.43;;;;;;;18.04;74.23;101500.28;1520156;94;21162;-81
2021/09/09 05:00:32;;;;;;;21.62;15.18;;;;;;;18.70;73.12;101501.05;1520246;94;21158;-82
2021/09/09 05:02:59;;;;;;;23.75;14.87;;;;;;;19.22;72.02;101498.53;1520355;93;21083;-82
2021/09/09 05:05:26;;;;;;;34.08;16.15;;;;;;;19.60;70.83;101502.11;1520397;94;21793;-82
2021/09/09 05:07:52;;;;;;;31.75;15.93;;;;;;;19.47;69.07;101495.88;1520395;93;21623;-82
2021/09/09 05:10:19;;;;;;;31.42;16.82;;;;;;;19.09;67.88;101492.73;1520596;94;21205;-82
2021/09/09 05:12:45;;;;;;;25.23;15.72;;;;;;;18.61;67.44;101497.01;1520616;94;21178;-83
2021/09/09 05:15:12;;;;;;;22.00;14.35;;;;;;;18.23;67.57;101498.61;1520616;92;21202;-81
2021/09/09 05:17:39;;;;;;;29.37;15.90;;;;;;;17.95;67.48;101505.55;1520387;92;21954;-82
2021/09/09 05:20:08;;;;;;;22.95;14.83;;;;;;;17.70;67.74;101500.47;1519880;94;21166;-82
2021/09/09 05:22:35;;;;;;;20.27;14.18;;;;;;;17.51;67.96;101500.73;1520038;92;21667;-83
2021/09/09 05:25:02;;;;;;;23.62;14.65;;;;;;;17.36;68.15;101497.94;1520659;92;21310;-85
2021/09/09 05:27:29;;;;;;;25.57;16.25;;;;;;;17.27;68.35;101508.97;1578907;88;21152;-83
2021/09/09 05:29:55;;;;;;;29.72;16.30;;;;;;;17.20;68.49;101488.49;1637801;83;22467;-82
2021/09/09 05:32:22;;;;;;;24.43;18.73;;;;;;;17.09;68.42;101500.80;1785259;80;21578;-83
2021/09/09 05:34:49;;;;;;;33.55;20.23;;;;;;;16.99;68.60;101501.59;1785029;80;21002;-82
2021/09/09 05:37:15;;;;;;;29.75;19.20;;;;;;;16.90;68.60;101499.72;1774652;80;21018;-82
2021/09/09 05:39:42;;;;;;;21.33;16.48;;;;;;;16.76;68.71;101493.30;1775209;80;21783;-90
2021/09/09 05:42:09;;;;;;;22.13;17.27;;;;;;;16.69;68.89;101493.69;1775364;80;22406;-90
2021/09/09 05:44:36;;;;;;;24.20;18.42;;;;;;;16.63;69.12;101497.58;1775063;80;21002;-90
2021/09/09 05:47:02;;;;;;;27.52;18.02;;;;;;;16.60;69.25;101481.17;1775372;80;21191;-90
2021/09/09 05:49:29;;;;;;;27.17;18.27;;;;;;;16.56;69.25;101480.69;1774271;80;21057;-82
2021/09/09 05:51:56;;;;;;;29.07;19.15;;;;;;;16.48;69.39;101480.59;1773952;80;21551;-82
2021/09/09 05:54:23;;;;;;;32.90;21.90;;;;;;;16.46;69.46;101478.36;1799674;79;22545;-90
2021/09/09 05:56:49;;;;;;;29.52;21.17;;;;;;;16.44;69.65;101482.77;1812122;79;21007;-91
2021/09/09 05:59:16;;;;;;;33.02;21.82;;;;;;;16.45;69.76;101479.22;1812199;79;21019;-89
2021/09/09 06:01:45;;;;;;;28.92;21.77;;;;;;;16.43;69.87;101478.76;1812347;79;21163;-90
2021/09/09 06:04:13;;;;;;;32.75;21.97;;;;;;;16.44;69.92;101480.11;1812438;79;21002;-90
2021/09/09 06:06:40;;;;;;;36.50;23.60;;;;;;;16.47;70.22;101477.47;1812520;79;21773;-90
2021/09/09 06:09:07;;;;;;;30.82;23.07;;;;;;;16.54;70.37;101472.25;1811749;79;21039;-82
2021/09/09 06:11:33;;;;;;;31.95;23.67;;;;;;;16.55;70.27;101466.05;1812475;79;21082;-91
2021/09/09 06:14:00;;;;;;;37.98;25.32;;;;;;;16.57;70.37;101473.59;1812537;79;21018;-90
2021/09/09 06:16:26;;;;;;;33.20;23.22;;;;;;;16.58;70.44;101469.63;1812804;79;21038;-90
2021/09/09 06:18:53;;;;;;;32.00;24.02;;;;;;;16.62;70.55;101468.79;1812388;79;21954;-90
2021/09/09 06:21:20;;;;;;;33.58;25.35;;;;;;;16.67;70.71;101464.88;1812246;79;21030;-90
2021/09/09 06:23:47;;;;;;;36.80;24.32;;;;;;;16.75;70.76;101464.95;1812356;78;21023;-89
2021/09/09 06:26:13;;;;;;;36.30;25.97;;;;;;;16.81;70.86;101466.34;1812644;78;21107;-92
2021/09/09 06:28:40;;;;;;;38.60;27.80;;;;;;;16.89;70.94;101468.66;1812623;79;21038;-91
2021/09/09 06:31:07;;;;;;;38.58;25.95;;;;;;;16.98;70.87;101475.86;1811967;78;22553;-83
2021/09/09 06:33:34;;;;;;;41.23;26.62;;;;;;;17.00;70.92;101475.44;1811664;79;21015;-83
2021/09/09 06:36:00;;;;;;;40.28;27.90;;;;;;;17.08;71.10;101471.98;1811990;78;21058;-92
2021/09/09 06:38:27;;;;;;;39.05;28.62;;;;;;;17.18;71.22;101467.64;1812392;79;21007;-92
2021/09/09 06:40:54;;;;;;;42.27;29.25;;;;;;;17.28;71.39;101472.15;1812450;79;21614;-84
2021/09/09 06:43:20;;;;;;;39.55;28.75;;;;;;;17.39;71.44;101470.04;1811728;78;21377;-84
2021/09/09 06:45:47;;;;;;;40.40;29.07;;;;;;;17.48;71.45;101469.67;1811637;78;20999;-84
2021/09/09 06:48:14;;;;;;;36.98;28.02;;;;;;;17.60;71.48;101473.30;1811715;78;22176;-83
2021/09/09 06:50:41;;;;;;;45.08;28.17;;;;;;;17.72;71.48;101475.16;1811465;79;21559;-83
2021/09/09 06:53:08;;;;;;;35.25;28.55;;;;;;;17.82;71.51;101463.25;1811230;79;21062;-83
2021/09/09 06:55:35;;;;;;;42.00;30.02;;;;;;;17.97;71.44;101466.94;1811491;79;21871;-84
2021/09/09 06:58:02;;;;;;;37.83;27.73;;;;;;;18.08;71.29;101465.23;1811468;79;21015;-84
2021/09/09 07:00:29;;;;;;;39.98;27.85;;;;;;;18.19;71.11;101464.84;1811602;79;21535;-84
2021/09/09 07:02:55;;;;;;;39.23;27.40;;;;;;;18.31;71.10;101471.12;1811372;79;21073;-84
2021/09/09 07:05:22;;;;;;;44.18;32.88;;;;;;;18.42;70.99;101469.39;1811823;79;20999;-92
2021/09/09 07:07:49;;;;;;;37.13;28.02;;;;;;;18.53;70.89;101467.66;1812306;78;22570;-92
2021/09/09 07:10:18;;;;;;;33.90;27.62;;;;;;;18.63;70.76;101469.45;1812336;79;21010;-92
2021/09/09 07:12:44;;;;;;;38.98;27.25;;;;;;;18.74;70.76;101462.83;1812572;79;21030;-92
2021/09/09 07:15:11;;;;;;;30.62;24.92;;;;;;;18.86;70.61;101463.32;1812443;79;21071;-92
2021/09/09 07:17:38;;;;;;;32.40;27.07;;;;;;;18.95;70.49;101455.80;1812447;79;21069;-92
2021/09/09 07:20:05;;;;;;;32.00;24.77;;;;;;;19.06;70.31;101451.81;1812231;79;21689;-91
2021/09/09 07:22:32;;;;;;;33.23;26.48;;;;;;;19.13;70.15;101451.81;1812429;78;20995;-92
2021/09/09 07:24:58;;;;;;;32.75;25.00;;;;;;;19.23;70.00;101452.25;1812890;79;21031;-91
2021/09/09 07:27:25;;;;;;;25.75;22.40;;;;;;;19.32;69.78;101462.51;1812831;79;21070;-91
2021/09/09 07:29:52;;;;;;;26.15;21.45;;;;;;;19.40;69.47;101458.05;1812175;79;21018;-84
2021/09/09 07:32:18;;;;;;;26.45;21.27;;;;;;;19.48;69.19;101452.25;1811786;79;22532;-84
2021/09/09 07:34:45;;;;;;;31.90;22.13;;;;;;;19.58;68.88;101453.16;1811831;79;21037;-84
2021/09/09 07:37:12;;;;;;;35.00;19.98;;;;;;;19.65;68.65;101456.23;1812055;79;21015;-84
2021/09/09 07:39:39;;;;;;;28.42;19.52;;;;;;;19.75;68.39;101450.50;1811683;78;21034;-83
2021/09/09 07:42:05;;;;;;;21.42;18.25;;;;;;;19.85;68.14;101453.58;1811649;78;21548;-83
2021/09/09 07:44:32;;;;;;;25.17;19.73;;;;;;;19.95;67.88;101459.78;1811894;78;21728;-84
2021/09/09 07:46:58;;;;;;;22.25;18.15;;;;;;;20.05;67.68;101458.00;1811864;79;20972;-84
2021/09/09 07:49:25;;;;;;;20.55;16.50;;;;;;;20.16;67.41;101457.52;1811837;79;21057;-83
2021/09/09 07:51:52;;;;;;;25.32;16.37;;;;;;;20.26;67.08;101453.03;1811536;78;20983;-82
2021/09/09 07:54:18;;;;;;;17.20;14.73;;;;;;;20.33;66.76;101440.96;1808359;79;21531;-81
2021/09/09 07:56:47;;;;;;;26.30;15.68;;;;;;;20.43;66.51;101439.59;1803816;79;21778;-83
2021/09/09 07:59:15;;;;;;;17.42;14.95;;;;;;;20.51;65.95;101446.66;1797950;79;21043;-83
2021/09/09 08:01:44;;;;;;;19.48;14.18;;;;;;;20.59;65.86;101434.61;1795625;79;21000;-83
2021/09/09 08:04:16;;;;;;;17.52;14.83;;;;;;;20.68;65.65;101445.26;1795494;79;21079;-83
2021/09/09 08:06:40;;;;;;;22.22;13.50;;;;;;;20.78;65.44;101445.66;1795267;79;21059;-82
2021/09/09 08:09:07;;;;;;;15.93;12.13;;;;;;;20.88;65.15;101445.61;1795813;79;22184;-82
2021/09/09 08:11:33;;;;;;;16.45;12.07;;;;;;;20.98;64.81;101448.64;1795706;78;21114;-82
2021/09/09 08:14:00;;;;;;;20.50;15.20;;;;;;;21.05;64.37;101441.02;1795777;79;21004;-82
2021/09/09 08:16:27;;;;;;;19.10;13.15;;;;;;;21.14;63.97;101436.93;1796301;79;21134;-91
2021/09/09 08:18:53;;;;;;;14.53;12.25;;;;;;;21.25;63.50;101445.34;1796561;79;20983;-90
2021/09/09 08:21:20;;;;;;;12.73;9.70;;;;;;;21.32;63.23;101439.01;1796458;79;21744;-90
2021/09/09 08:23:47;;;;;;;15.30;10.50;;;;;;;21.40;62.91;101441.19;1796142;79;21075;-90
2021/09/09 08:26:14;;;;;;;12.93;9.08;;;;;;;21.49;62.54;101440.23;1796016;79;20995;-91
2021/09/09 08:28:40;;;;;;;12.45;9.05;;;;;;;21.58;62.17;101439.27;1795895;79;21003;-82
2021/09/09 08:31:07;;;;;;;14.70;9.48;;;;;;;21.65;61.84;101432.95;1795176;79;21106;-82
2021/09/09 08:33:34;;;;;;;12.50;9.53;;;;;;;21.74;61.69;101431.06;1795049;79;21689;-82
2021/09/09 08:36:05;;;;;;;11.33;8.25;;;;;;;21.85;61.28;101435.44;1795022;78;21000;-83
2021/09/09 08:38:32;;;;;;;12.53;8.30;;;;;;;21.92;60.93;101431.33;1795297;79;21671;-83
2021/09/09 08:41:01;;;;;;;9.93;7.72;;;;;;;22.02;60.48;101440.61;1795292;79;21055;-82
2021/09/09 08:43:28;;;;;;;13.95;8.30;;;;;;;22.10;59.95;101434.23;1795281;78;21098;-83
2021/09/09 08:45:55;;;;;;;16.77;8.95;;;;;;;22.16;59.46;101433.27;1795298;79;21812;-82
2021/09/09 08:48:21;;;;;;;10.45;8.28;;;;;;;22.25;59.01;101438.56;1795129;78;21470;-82
2021/09/09 08:50:48;;;;;;;30.10;25.08;;;;;;;22.31;58.85;101433.11;1795185;79;21061;-82
2021/09/09 08:53:15;;;;;;;13.45;10.28;;;;;;;22.36;58.61;101433.06;1795288;79;21281;-82
2021/09/09 08:55:43;;;;;;;16.60;9.70;;;;;;;22.42;58.56;101425.39;1808823;78;21042;-82
2021/09/09 08:58:10;;;;;;;12.60;8.75;;;;;;;22.50;58.14;101424.82;1811354;78;21755;-82
2021/09/09 09:00:37;;;;;;;12.90;9.03;;;;;;;22.47;57.53;101407.45;1811438;78;21050;-82
2021/09/09 09:03:04;;;;;;;12.30;8.50;;;;;;;22.47;57.53;101407.45;1811900;78;21512;-82
2021/09/09 09:05:35;;;;;;;11.73;7.97;;;;;;;22.65;57.42;101425.06;1811882;79;21058;-91
2021/09/09 09:08:04;;;;;;;15.32;8.25;;;;;;;22.70;56.99;101424.09;1790635;79;20971;-91
2021/09/09 09:10:32;;;;;;;12.65;9.10;;;;;;;22.78;56.88;101423.09;1812502;78;22642;-91
2021/09/09 09:12:59;;;;;;;13.25;9.45;;;;;;;22.82;56.76;101414.95;1811949;78;21664;-93
2021/09/09 09:15:31;;;;;;;15.13;9.85;;;;;;;22.94;56.89;101415.24;1812092;78;21062;-92
2021/09/09 09:18:02;;;;;;;15.85;11.15;;;;;;;22.94;56.89;101415.24;1812815;79;21093;-90
2021/09/09 09:20:42;;;;;;;15.85;10.90;;;;;;;22.99;56.83;101416.06;1811311;79;21034;-83
2021/09/09 09:23:12;;;;;;;14.40;9.80;;;;;;;23.00;57.06;101405.74;1811511;78;22566;-82
2021/09/09 09:25:50;;;;;;;14.00;9.83;;;;;;;23.09;56.66;101415.03;1811813;78;21532;-83
2021/09/09 09:28:40;;;;;;;14.80;11.50;;;;;;;23.13;56.38;101414.52;1811881;78;21128;-82
2021/09/09 09:31:10;;;;;;;15.63;11.45;;;;;;;23.08;56.53;101393.09;1811882;79;21181;-83
2021/09/09 09:33:39;;;;;;;21.17;15.63;;;;;;;23.19;56.60;101409.50;1811650;79;21058;-83
2021/09/09 09:36:33;;;;;;;12.58;11.28;;;;;;;23.22;56.32;101400.06;1811555;78;21753;-82
2021/09/09 09:39:14;;;;;;;17.20;10.45;;;;;;;23.24;56.21;101406.30;1791778;79;21493;-83
2021/09/09 09:41:56;;;;;;;14.23;12.20;;;;;;;23.24;56.01;101406.30;1811624;79;21014;-83
2021/09/09 09:44:39;;;;;;;21.45;11.12;;;;;;;23.29;55.58;101400.36;1811655;79;21038;-83
2021/09/09 09:47:21;;;;;;;14.60;9.83;;;;;;;23.29;55.58;101400.36;1811745;78;21549;-83
2021/09/09 09:49:55;;;;;;;13.22;9.58;;;;;;;23.20;55.44;101379.03;1811415;78;21255;-83
2021/09/09 09:52:26;;;;;;;13.40;9.83;;;;;;;23.35;54.91;101389.53;1789295;79;21548;-92
2021/09/09 09:54:56;;;;;;;11.22;8.65;;;;;;;23.35;54.91;101389.53;1807587;79;21101;-91
2021/09/09 09:57:25;;;;;;;15.03;8.73;;;;;;;23.38;54.55;101392.61;1796207;79;21039;-91
2021/09/09 09:59:51;;;;;;;11.55;8.08;;;;;;;23.41;54.20;101393.91;1796445;79;21046;-91
2021/09/09 10:02:18;;;;;;;14.78;9.33;;;;;;;23.49;53.94;101391.95;1796549;79;21775;-90
2021/09/09 10:04:49;;;;;;;10.20;8.75;;;;;;;23.49;53.94;101391.95;1796541;79;21043;-91
2021/09/09 10:07:16;;;;;;;11.08;9.05;;;;;;;23.53;53.54;101395.47;1796579;79;21015;-91
2021/09/09 10:09:43;;;;;;;11.28;8.58;;;;;;;23.55;53.33;101393.64;1796421;79;21038;-90
2021/09/09 10:12:11;;;;;;;9.03;8.03;;;;;;;23.58;52.97;101392.25;1796447;79;21035;-91
2021/09/09 10:14:46;;;;;;;9.98;7.95;;;;;;;23.59;52.55;101386.82;1796381;79;21760;-91
2021/09/09 10:17:12;;;;;;;11.48;7.83;;;;;;;23.62;52.38;101388.58;1774988;79;21007;-92
2021/09/09 10:19:39;;;;;;;19.87;7.90;;;;;;;23.65;51.98;101384.04;1796365;79;21023;-91
2021/09/09 10:22:13;;;;;;;15.95;8.65;;;;;;;23.67;51.70;101377.30;1796444;79;20999;-91
2021/09/09 10:24:52;;;;;;;15.45;7.47;;;;;;;23.70;51.41;101378.56;1796342;79;21059;-92
2021/09/09 10:27:33;;;;;;;9.90;7.05;;;;;;;23.74;51.39;101379.39;1796758;79;21994;-91
2021/09/09 10:30:06;;;;;;;9.55;7.58;;;;;;;23.77;51.07;101369.93;1796321;79;21054;-91
2021/09/09 10:32:40;;;;;;;12.65;7.47;;;;;;;23.82;50.79;101368.95;1796336;79;21016;-91
2021/09/09 10:35:26;;;;;;;12.35;7.00;;;;;;;23.87;50.60;101372.87;1796225;79;21119;-90
2021/09/09 10:37:51;;;;;;;11.30;7.90;;;;;;;23.91;50.17;101369.20;1795424;78;21074;-91
2021/09/09 10:40:36;;;;;;;14.05;7.60;;;;;;;23.94;50.07;101361.55;1795984;79;21725;-91
2021/09/09 10:43:28;;;;;;;16.12;7.55;;;;;;;23.96;49.86;101361.94;1796309;79;20973;-91
2021/09/09 10:46:07;;;;;;;12.95;7.20;;;;;;;23.99;49.56;101361.89;1796535;79;20999;-91
2021/09/09 10:48:33;;;;;;;8.63;6.67;;;;;;;24.01;49.40;101357.83;1796298;79;21548;-91
2021/09/09 10:51:10;;;;;;;13.70;8.25;;;;;;;24.04;49.52;101357.73;1796534;79;21043;-91
2021/09/09 10:53:41;;;;;;;12.40;8.13;;;;;;;24.07;49.62;101359.03;1796588;79;21939;-91
2021/09/09 10:56:28;;;;;;;10.43;8.10;;;;;;;24.12;49.50;101359.83;1796172;79;20976;-90
2021/09/09 10:59:19;;;;;;;11.45;7.60;;;;;;;24.15;49.46;101352.14;1774899;79;21094;-91
2021/09/09 11:01:45;;;;;;;9.80;6.83;;;;;;;24.16;49.24;101345.85;1801612;79;21230;-91
2021/09/09 11:04:35;;;;;;;13.32;7.72;;;;;;;24.19;48.98;101343.95;1801810;79;21023;-90
2021/09/09 11:07:03;;;;;;;11.50;7.40;;;;;;;24.20;48.38;101336.79;1801878;78;21724;-91
2021/09/09 11:09:29;;;;;;;10.90;7.50;;;;;;;24.21;48.24;101332.73;1801098;79;21043;-83
2021/09/09 11:12:03;;;;;;;11.03;6.15;;;;;;;24.24;48.05;101329.95;1801046;79;21011;-82
2021/09/09 11:14:33;;;;;;;11.20;6.58;;;;;;;24.28;47.94;101332.58;1800148;78;21715;-83
2021/09/09 11:17:00;;;;;;;16.07;7.58;;;;;;;24.29;47.58;101328.95;1800839;79;21038;-83
2021/09/09 11:19:26;;;;;;;11.00;6.50;;;;;;;24.30;47.38;101329.39;1800935;78;22568;-83
2021/09/09 11:21:53;;;;;;;8.58;6.70;;;;;;;24.33;47.07;101330.21;1800765;78;21046;-83
2021/09/09 11:24:20;;;;;;;7.12;5.55;;;;;;;24.37;46.84;101325.17;1800867;79;21015;-83
2021/09/09 11:26:49;;;;;;;11.05;5.95;;;;;;;24.41;46.52;101323.30;1800822;78;21019;-83